createdAt,value
2022-08-22T00:00:12.049Z,88.49
2022-08-22T00:02:46.231Z,78.77
2022-08-22T00:02:56.262Z,75.57
2022-08-22T00:03:04.983Z,76.93
2022-08-22T00:03:15.146Z,89.19
2022-08-22T00:05:39.331Z,87.66
2022-08-22T00:08:12.777Z,87.55
2022-08-22T00:10:49.853Z,87.34
2022-08-22T00:13:20.943Z,88.22
2022-08-22T00:15:53.806Z,87.78
2022-08-22T00:18:26.331Z,87.55
2022-08-22T00:21:00.380Z,88.55
2022-08-22T00:23:29.499Z,89.16
2022-08-22T00:26:02.186Z,90.93
2022-08-22T00:28:32.401Z,90.73
2022-08-22T00:31:02.761Z,90.38
2022-08-22T00:33:35.247Z,89.53
2022-08-22T00:36:16.280Z,89.63
2022-08-22T00:38:47.905Z,89.80
2022-08-22T00:41:25.290Z,91.00
2022-08-22T00:44:03.592Z,91.27
2022-08-22T00:46:47.746Z,90.37
2022-08-22T00:49:24.412Z,90.82
2022-08-22T00:52:19.661Z,90.38
2022-08-22T00:54:57.285Z,91.66
2022-08-22T00:57:46.088Z,93.04
2022-08-22T01:00:16.355Z,93.53
2022-08-22T01:02:53.076Z,92.94
2022-08-22T01:05:29.206Z,93.26
2022-08-22T01:08:05.726Z,93.19
2022-08-22T01:10:41.970Z,93.58
2022-08-22T01:13:15.954Z,93.73
2022-08-22T01:15:44.628Z,93.19
2022-08-22T01:18:25.917Z,92.81
2022-08-22T01:21:08.652Z,92.32
2022-08-22T01:23:56.315Z,92.55
2022-08-22T01:26:48.953Z,92.50
2022-08-22T01:29:32.326Z,92.08
2022-08-22T01:32:18.098Z,92.38
2022-08-22T01:34:56.400Z,91.34
2022-08-22T01:37:33.130Z,90.86
2022-08-22T01:40:17.127Z,91.42
2022-08-22T01:42:53.815Z,91.09
2022-08-22T01:45:51.092Z,91.02
2022-08-22T01:48:21.147Z,92.76
2022-08-22T01:50:53.423Z,93.37
2022-08-22T01:53:25.249Z,93.65
2022-08-22T01:55:59.708Z,93.97
2022-08-22T01:58:29.167Z,93.77
2022-08-22T02:01:04.118Z,94.06
2022-08-22T02:03:34.502Z,94.85
2022-08-22T02:06:06.229Z,94.34
2022-08-22T02:08:39.276Z,94.19
2022-08-22T02:11:08.216Z,94.32
2022-08-22T02:13:43.561Z,95.21
2022-08-22T02:16:13.261Z,95.31
2022-08-22T02:18:45.523Z,95.22
2022-08-22T02:21:17.635Z,94.59
2022-08-22T02:23:49.108Z,93.76
2022-08-22T02:26:18.479Z,93.90
2022-08-22T02:28:57.001Z,95.25
2022-08-22T02:31:34.226Z,94.50
2022-08-22T02:34:04.458Z,95.07
2022-08-22T02:36:35.619Z,94.79
2022-08-22T02:39:06.197Z,95.32
2022-08-22T02:41:38.460Z,94.51
2022-08-22T02:44:15.060Z,94.59
2022-08-22T02:46:46.963Z,94.85
2022-08-22T02:49:19.775Z,95.91
2022-08-22T02:51:52.555Z,95.19
2022-08-22T02:54:23.604Z,95.14
2022-08-22T02:56:54.496Z,95.30
2022-08-22T02:59:25.995Z,95.04
2022-08-22T03:01:54.439Z,95.56
2022-08-22T03:04:25.558Z,96.57
2022-08-22T03:07:07.936Z,96.42
2022-08-22T03:09:38.140Z,96.31
2022-08-22T03:12:09.490Z,96.61
2022-08-22T03:14:44.863Z,97.25
2022-08-22T03:17:16.693Z,96.86
2022-08-22T03:19:54.745Z,97.07
2022-08-22T03:22:28.929Z,96.49
2022-08-22T03:25:00.996Z,95.79
2022-08-22T03:27:32.517Z,95.91
2022-08-22T03:30:02.617Z,96.08
2022-08-22T03:32:46.050Z,96.12
2022-08-22T03:35:24.716Z,96.13
2022-08-22T03:37:57.790Z,97.23
2022-08-22T03:40:31.696Z,97.95
2022-08-22T03:43:23.514Z,96.88
2022-08-22T03:46:09.291Z,97.25
2022-08-22T03:49:04.303Z,97.10
2022-08-22T03:51:41.918Z,97.01
2022-08-22T03:54:23.464Z,97.56
2022-08-22T03:57:23.051Z,98.39
2022-08-22T04:00:11.990Z,99.08
2022-08-22T04:02:50.839Z,97.85
2022-08-22T04:05:27.130Z,98.09
2022-08-22T04:08:13.068Z,98.38
2022-08-22T04:10:52.811Z,99.05
2022-08-22T04:13:39.312Z,97.74
2022-08-22T04:16:22.126Z,98.08
2022-08-22T04:19:08.581Z,97.92
2022-08-22T04:21:43.199Z,97.41
2022-08-22T04:24:20.240Z,97.71
2022-08-22T04:26:52.304Z,97.93
2022-08-22T04:29:23.363Z,97.48
2022-08-22T04:31:54.966Z,97.07
2022-08-22T04:34:25.795Z,97.39
2022-08-22T04:36:56.729Z,97.07
2022-08-22T04:39:30.176Z,96.76
2022-08-22T04:42:16.310Z,96.90
2022-08-22T04:44:53.764Z,96.40
2022-08-22T04:47:28.647Z,96.87
2022-08-22T04:50:01.015Z,97.16
2022-08-22T04:52:41.137Z,97.30
2022-08-22T04:55:16.886Z,97.68
2022-08-22T04:57:51.663Z,97.98
2022-08-22T05:00:19.600Z,97.66
2022-08-22T05:02:49.700Z,98.15
2022-08-22T05:05:21.965Z,97.28
2022-08-22T05:07:51.027Z,96.71
2022-08-22T05:10:20.677Z,96.42
2022-08-22T05:12:54.515Z,97.39
2022-08-22T05:15:23.963Z,96.74
2022-08-22T05:17:54.782Z,96.64
2022-08-22T05:20:24.555Z,97.63
2022-08-22T05:22:54.896Z,97.57
2022-08-22T05:25:27.113Z,97.32
2022-08-22T05:28:07.708Z,96.88
2022-08-22T05:30:36.697Z,96.98
2022-08-22T05:33:08.153Z,97.65
2022-08-22T05:35:37.323Z,97.89
2022-08-22T05:38:05.786Z,97.85
2022-08-22T05:40:35.052Z,97.78
2022-08-22T05:43:10.400Z,98.03
2022-08-22T05:45:40.324Z,98.16
2022-08-22T05:48:10.455Z,97.88
2022-08-22T05:50:40.871Z,97.56
2022-08-22T05:53:11.977Z,97.02
2022-08-22T05:55:47.708Z,97.14
2022-08-22T05:58:27.086Z,96.61
2022-08-22T06:00:58.475Z,96.49
2022-08-22T06:03:27.893Z,96.58
2022-08-22T06:05:57.465Z,95.91
2022-08-22T06:08:28.722Z,95.84
2022-08-22T06:10:58.995Z,95.66
2022-08-22T06:13:33.204Z,95.85
2022-08-22T06:16:05.664Z,95.27
2022-08-22T06:18:34.042Z,95.19
2022-08-22T06:21:03.377Z,94.99
2022-08-22T06:23:35.156Z,95.24
2022-08-22T06:26:05.370Z,93.61
2022-08-22T06:28:36.732Z,93.71
2022-08-22T06:31:06.231Z,93.11
2022-08-22T06:33:38.341Z,93.24
2022-08-22T06:36:28.591Z,92.48
2022-08-22T06:39:01.427Z,92.27
2022-08-22T06:41:31.582Z,92.47
2022-08-22T06:44:01.561Z,92.39
2022-08-22T06:46:30.833Z,91.76
2022-08-22T06:49:00.215Z,92.01
2022-08-22T06:51:29.585Z,90.48
2022-08-22T06:54:00.857Z,89.87
2022-08-22T06:56:30.871Z,90.21
2022-08-22T06:59:01.614Z,89.63
2022-08-22T07:01:31.925Z,90.28
2022-08-22T07:04:05.115Z,88.99
2022-08-22T07:06:35.436Z,89.22
2022-08-22T07:09:05.526Z,89.29
2022-08-22T07:11:37.823Z,88.97
2022-08-22T07:14:08.742Z,89.16
2022-08-22T07:16:41.486Z,88.73
2022-08-22T07:19:10.366Z,89.56
2022-08-22T07:21:44.458Z,88.41
2022-08-22T07:24:15.798Z,88.32
2022-08-22T07:26:47.857Z,87.62
2022-08-22T07:29:21.783Z,87.96
2022-08-22T07:31:54.659Z,86.86
2022-08-22T07:34:29.110Z,86.21
2022-08-22T07:36:59.804Z,86.01
2022-08-22T07:39:32.540Z,86.55
2022-08-22T07:42:08.867Z,86.25
2022-08-22T07:44:45.335Z,85.27
2022-08-22T07:47:15.771Z,85.28
2022-08-22T07:49:50.640Z,84.41
2022-08-22T07:52:19.300Z,84.48
2022-08-22T07:54:49.023Z,83.39
2022-08-22T07:57:22.501Z,84.07
2022-08-22T07:59:53.111Z,83.55
2022-08-22T08:02:21.567Z,83.25
2022-08-22T08:04:50.298Z,82.63
2022-08-22T08:07:41.813Z,82.16
2022-08-22T08:10:17.033Z,80.67
2022-08-22T08:12:52.681Z,81.60
2022-08-22T08:15:32.816Z,80.75
2022-08-22T08:18:05.405Z,79.97
2022-08-22T08:20:36.673Z,79.85
2022-08-22T08:23:10.113Z,80.10
2022-08-22T08:25:53.456Z,79.55
2022-08-22T08:28:34.320Z,79.95
2022-08-22T08:31:08.717Z,78.69
2022-08-22T08:33:39.605Z,78.29
2022-08-22T08:36:16.576Z,78.24
2022-08-22T08:38:54.478Z,77.54
2022-08-22T08:42:01.527Z,77.60
2022-08-22T08:44:49.469Z,76.96
2022-08-22T08:47:32.916Z,76.61
2022-08-22T08:50:15.657Z,77.21
2022-08-22T08:53:09.766Z,76.47
2022-08-22T08:55:47.381Z,76.58
2022-08-22T08:58:43.360Z,75.91
2022-08-22T09:01:27.774Z,74.86
2022-08-22T09:04:22.688Z,75.15
2022-08-22T09:07:25.406Z,74.57
2022-08-22T09:10:13.902Z,73.88
2022-08-22T09:13:11.348Z,74.61
2022-08-22T09:16:05.354Z,73.48
2022-08-22T09:18:56.675Z,71.67
2022-08-22T09:21:58.733Z,72.14
2022-08-22T09:24:56.106Z,71.00
2022-08-22T09:27:34.459Z,71.13
2022-08-22T09:30:11.736Z,69.34
2022-08-22T09:32:47.132Z,68.71
2022-08-22T09:35:25.516Z,68.85
2022-08-22T09:38:28.099Z,69.20
2022-08-22T09:41:04.570Z,68.30
2022-08-22T09:43:44.190Z,67.76
2022-08-22T09:46:31.578Z,66.60
2022-08-22T09:49:11.430Z,68.88
2022-08-22T09:51:45.908Z,67.84
2022-08-22T09:54:31.123Z,64.21
2022-08-22T09:57:14.510Z,62.09
2022-08-22T10:00:03.064Z,62.33
2022-08-22T10:02:43.281Z,60.43
2022-08-22T10:05:39.459Z,61.06
2022-08-22T10:08:37.845Z,59.69
2022-08-22T10:11:22.930Z,59.40
2022-08-22T10:14:01.126Z,58.28
2022-08-22T10:16:48.692Z,57.92
2022-08-22T10:19:26.172Z,57.32
2022-08-22T10:22:41.862Z,58.29
2022-08-22T10:25:26.416Z,60.00
2022-08-22T10:28:23.890Z,57.64
2022-08-22T10:31:13.284Z,57.55
2022-08-22T10:33:47.761Z,57.40
2022-08-22T10:36:23.504Z,56.88
2022-08-22T10:38:56.627Z,55.36
2022-08-22T10:41:30.557Z,54.57
2022-08-22T10:44:04.898Z,56.24
2022-08-22T10:46:42.243Z,55.20
2022-08-22T10:49:20.497Z,55.17
2022-08-22T10:52:15.810Z,54.69
2022-08-22T10:54:51.510Z,54.99
2022-08-22T10:57:38.035Z,56.05
2022-08-22T11:00:14.570Z,55.61
2022-08-22T11:02:53.473Z,55.26
2022-08-22T11:05:50.224Z,56.71
2022-08-22T11:08:46.536Z,56.45
2022-08-22T11:11:40.365Z,54.88
2022-08-22T11:14:25.620Z,55.14
2022-08-22T11:17:00.637Z,55.60
2022-08-22T11:19:45.842Z,56.54
2022-08-22T11:22:30.186Z,54.72
2022-08-22T11:25:35.771Z,55.09
2022-08-22T11:28:36.830Z,56.08
2022-08-22T11:31:16.261Z,56.38
2022-08-22T11:33:54.378Z,54.30
2022-08-22T11:36:32.290Z,56.93
2022-08-22T11:39:13.811Z,56.63
2022-08-22T11:41:59.580Z,58.22
2022-08-22T11:44:34.867Z,57.82
2022-08-22T11:47:11.730Z,56.21
2022-08-22T11:49:51.663Z,55.21
2022-08-22T11:52:42.800Z,56.64
2022-08-22T11:55:33.042Z,53.51
2022-08-22T11:58:23.104Z,51.29
2022-08-22T12:01:01.933Z,51.72
2022-08-22T12:03:46.787Z,52.76
2022-08-22T12:06:41.907Z,51.58
2022-08-22T12:09:20.056Z,51.40
2022-08-22T12:12:01.390Z,53.05
2022-08-22T12:14:42.950Z,53.91
2022-08-22T12:17:55.592Z,54.69
2022-08-22T12:20:24.194Z,54.44
2022-08-22T12:23:10.694Z,55.88
2022-08-22T12:25:56.288Z,55.66
2022-08-22T12:28:32.789Z,52.16
2022-08-22T12:31:12.165Z,52.11
2022-08-22T12:34:03.435Z,51.11
2022-08-22T12:36:58.642Z,49.95
2022-08-22T12:39:44.592Z,51.54
2022-08-22T12:42:32.456Z,48.20
2022-08-22T12:45:21.318Z,44.73
2022-08-22T12:48:02.928Z,48.30
2022-08-22T12:50:43.191Z,48.72
2022-08-22T12:53:38.917Z,45.10
2022-08-22T12:56:20.794Z,45.61
2022-08-22T12:59:12.634Z,46.76
2022-08-22T13:01:44.154Z,47.31
2022-08-22T13:04:19.340Z,49.02
2022-08-22T13:07:08.578Z,49.36
2022-08-22T13:09:40.670Z,50.31
2022-08-22T13:12:28.348Z,48.93
2022-08-22T13:15:01.335Z,44.22
2022-08-22T13:17:31.350Z,44.93
2022-08-22T13:20:08.630Z,41.11
2022-08-22T13:22:41.349Z,42.50
2022-08-22T13:25:25.797Z,42.82
2022-08-22T13:27:59.331Z,44.89
2022-08-22T13:30:31.878Z,46.02
2022-08-22T13:33:08.777Z,44.17
2022-08-22T13:35:44.630Z,45.04
2022-08-22T13:38:25.877Z,44.80
2022-08-22T13:40:56.724Z,45.85
2022-08-22T13:43:29.774Z,46.17
2022-08-22T13:46:01.850Z,47.42
2022-08-22T13:48:46.807Z,47.50
2022-08-22T13:51:24.531Z,46.44
2022-08-22T13:54:00.892Z,46.00
2022-08-22T13:56:37.052Z,45.39
2022-08-22T13:59:29.302Z,45.54
2022-08-22T14:02:07.933Z,47.19
2022-08-22T14:04:48.699Z,47.82
2022-08-22T14:07:31.095Z,47.11
2022-08-22T14:10:03.361Z,46.69
2022-08-22T14:12:50.685Z,46.67
2022-08-22T14:15:24.666Z,46.86
2022-08-22T14:17:59.704Z,46.38
2022-08-22T14:20:33.810Z,46.78
2022-08-22T14:23:08.694Z,48.21
2022-08-22T14:25:39.096Z,46.25
2022-08-22T14:28:11.783Z,45.62
2022-08-22T14:30:59.485Z,46.34
2022-08-22T14:33:34.437Z,45.39
2022-08-22T14:36:15.189Z,44.27
2022-08-22T14:38:53.242Z,43.28
2022-08-22T14:41:55.489Z,44.41
2022-08-22T14:44:22.500Z,41.99
2022-08-22T14:46:55.217Z,38.60
2022-08-22T14:49:29.131Z,37.31
2022-08-22T14:52:04.565Z,40.23
2022-08-22T14:54:35.543Z,41.32
2022-08-22T14:57:10.657Z,44.63
2022-08-22T14:59:45.481Z,45.59
2022-08-22T15:02:18.645Z,45.03
2022-08-22T15:04:50.803Z,45.70
2022-08-22T15:07:24.419Z,46.21
2022-08-22T15:09:58.831Z,47.48
2022-08-22T15:12:30.725Z,47.57
2022-08-22T15:15:02.831Z,46.94
2022-08-22T15:17:44.323Z,48.12
2022-08-22T15:20:27.665Z,48.59
2022-08-22T15:22:58.747Z,48.77
2022-08-22T15:25:33.461Z,47.86
2022-08-22T15:28:06.569Z,46.11
2022-08-22T15:30:44.378Z,47.22
2022-08-22T15:33:19.065Z,48.26
2022-08-22T15:35:48.514Z,49.28
2022-08-22T15:38:30.647Z,49.46
2022-08-22T15:41:47.413Z,48.68
2022-08-22T15:44:33.116Z,49.04
2022-08-22T15:47:11.896Z,49.82
2022-08-22T15:49:55.575Z,50.19
2022-08-22T15:52:29.557Z,49.64
2022-08-22T15:55:24.589Z,50.20
2022-08-22T15:58:12.857Z,50.30
2022-08-22T16:00:45.573Z,51.26
2022-08-22T16:03:25.500Z,51.05
2022-08-22T16:05:58.314Z,50.85
2022-08-22T16:08:32.735Z,51.02
2022-08-22T16:11:28.498Z,51.30
2022-08-22T16:14:23.959Z,51.44
2022-08-22T16:17:03.653Z,51.75
2022-08-22T16:19:33.151Z,54.00
2022-08-22T16:22:19.103Z,51.95
2022-08-22T16:25:06.822Z,51.49
2022-08-22T16:27:52.232Z,51.42
2022-08-22T16:30:34.103Z,52.88
2022-08-22T16:33:02.880Z,53.37
2022-08-22T16:36:10.681Z,53.78
2022-08-22T16:38:44.648Z,54.90
2022-08-22T16:41:41.555Z,54.72
2022-08-22T16:44:41.669Z,55.85
2022-08-22T16:47:13.186Z,56.90
2022-08-22T16:50:00.114Z,60.95
2022-08-22T16:52:58.295Z,63.87
2022-08-22T16:56:04.792Z,66.00
2022-08-22T16:59:22.568Z,65.58
2022-08-22T17:02:19.809Z,57.61
2022-08-22T17:05:04.243Z,59.51
2022-08-22T17:07:45.539Z,59.17
2022-08-22T17:10:29.096Z,59.97
2022-08-22T17:13:10.244Z,61.20
2022-08-22T17:15:58.499Z,61.45
2022-08-22T17:18:47.021Z,60.73
2022-08-22T17:21:25.452Z,59.76
2022-08-22T17:24:33.762Z,60.25
2022-08-22T17:27:08.694Z,61.54
2022-08-22T17:29:54.548Z,61.80
2022-08-22T17:32:34.935Z,63.16
2022-08-22T17:35:18.495Z,62.95
2022-08-22T17:37:56.550Z,63.57
2022-08-22T17:40:38.136Z,63.41
2022-08-22T17:43:21.908Z,63.12
2022-08-22T17:46:05.617Z,63.70
2022-08-22T17:48:41.775Z,63.95
2022-08-22T17:51:27.907Z,64.53
2022-08-22T17:54:02.643Z,65.39
2022-08-22T17:56:41.120Z,65.58
2022-08-22T17:59:20.958Z,65.17
2022-08-22T18:01:55.082Z,65.86
2022-08-22T18:04:31.146Z,65.99
2022-08-22T18:07:33.135Z,66.59
2022-08-22T18:10:08.004Z,66.21
2022-08-22T18:12:44.007Z,66.51
2022-08-22T18:15:21.639Z,66.21
2022-08-22T18:17:56.742Z,66.00
2022-08-22T18:20:31.132Z,66.30
2022-08-22T18:23:04.612Z,66.25
2022-08-22T18:26:03.395Z,66.58
2022-08-22T18:28:40.815Z,66.53
2022-08-22T18:31:16.660Z,66.94
2022-08-22T18:33:53.379Z,67.08
2022-08-22T18:36:24.669Z,67.39
2022-08-22T18:38:59.822Z,67.55
2022-08-22T18:41:35.274Z,67.29
2022-08-22T18:44:11.899Z,67.72
2022-08-22T18:46:44.807Z,68.61
2022-08-22T18:49:40.298Z,68.68
2022-08-22T18:52:44.353Z,69.82
2022-08-22T18:55:45.170Z,69.30
2022-08-22T18:58:39.671Z,70.67
2022-08-22T19:01:42.186Z,70.61
2022-08-22T19:04:34.797Z,69.97
2022-08-22T19:07:20.747Z,70.07
2022-08-22T19:10:13.470Z,69.20
2022-08-22T19:13:06.474Z,70.88
2022-08-22T19:15:52.026Z,70.10
2022-08-22T19:18:36.318Z,71.23
2022-08-22T19:21:50.414Z,71.10
2022-08-22T19:25:08.958Z,71.67
2022-08-22T19:27:40.459Z,73.14
2022-08-22T19:30:45.541Z,75.25
2022-08-22T19:33:19.346Z,78.36
2022-08-22T19:36:30.332Z,79.78
2022-08-22T19:39:04.194Z,81.35
2022-08-22T19:41:53.545Z,81.59
2022-08-22T19:44:42.848Z,82.12
2022-08-22T19:47:27.184Z,79.36
2022-08-22T19:50:05.591Z,80.47
2022-08-22T19:52:53.020Z,80.89
2022-08-22T19:55:29.432Z,81.41
2022-08-22T19:58:07.903Z,83.60
2022-08-22T20:00:53.444Z,83.72
2022-08-22T20:03:32.958Z,82.64
2022-08-22T20:06:22.114Z,82.98
2022-08-22T20:09:12.628Z,84.65
2022-08-22T20:11:49.928Z,81.00
2022-08-22T20:14:30.013Z,82.16
2022-08-22T20:17:03.889Z,82.71
2022-08-22T20:20:16.362Z,83.29
2022-08-22T20:22:38.733Z,82.96
2022-08-22T20:25:15.739Z,82.30
2022-08-22T20:28:03.647Z,83.44
2022-08-22T20:30:39.110Z,83.38
2022-08-22T20:33:10.197Z,83.81
2022-08-22T20:35:43.996Z,83.81
2022-08-22T20:38:17.663Z,83.53
2022-08-22T20:40:56.596Z,82.49
2022-08-22T20:43:28.608Z,82.09
2022-08-22T20:46:13.294Z,81.65
2022-08-22T20:48:45.128Z,81.15
2022-08-22T20:51:21.915Z,80.49
2022-08-22T20:53:53.532Z,80.81
2022-08-22T20:56:48.694Z,80.22
2022-08-22T20:59:35.736Z,79.67
2022-08-22T21:02:17.049Z,79.37
2022-08-22T21:04:53.105Z,78.79
2022-08-22T21:07:26.794Z,79.71
2022-08-22T21:10:17.819Z,77.51
2022-08-22T21:13:04.465Z,75.89
2022-08-22T21:15:35.262Z,75.95
2022-08-22T21:18:03.630Z,76.75
2022-08-22T21:20:34.234Z,76.41
2022-08-22T21:23:06.812Z,76.46
2022-08-22T21:25:49.753Z,76.72
2022-08-22T21:28:28.643Z,77.22
2022-08-22T21:30:57.209Z,76.83
2022-08-22T21:33:25.682Z,76.63
2022-08-22T21:36:00.374Z,76.26
2022-08-22T21:38:29.957Z,76.34
2022-08-22T21:41:04.626Z,75.88
2022-08-22T21:43:36.855Z,76.45
2022-08-22T21:46:05.506Z,76.17
2022-08-22T21:48:45.001Z,76.77
2022-08-22T21:51:40.280Z,77.32
2022-08-22T21:54:41.035Z,76.68
2022-08-22T21:57:18.825Z,77.35
2022-08-22T21:59:52.310Z,77.52
2022-08-22T22:02:39.793Z,76.68
2022-08-22T22:05:11.330Z,76.52
2022-08-22T22:07:41.494Z,75.16
2022-08-22T22:10:12.502Z,74.96
2022-08-22T22:12:41.715Z,74.69
2022-08-22T22:15:12.590Z,74.67
2022-08-22T22:17:40.603Z,73.76
2022-08-22T22:20:09.918Z,72.71
2022-08-22T22:22:45.914Z,72.31
2022-08-22T22:25:40.890Z,71.95
2022-08-22T22:28:08.907Z,72.22
2022-08-22T22:30:37.305Z,71.63
2022-08-22T22:33:05.568Z,71.12
2022-08-22T22:35:34.101Z,70.81
2022-08-22T22:38:02.488Z,70.44
2022-08-22T22:40:32.181Z,69.15
2022-08-22T22:43:00.350Z,68.53
2022-08-22T22:45:28.480Z,66.65
2022-08-22T22:47:56.918Z,65.37
2022-08-22T22:50:25.277Z,65.37
2022-08-22T22:52:54.157Z,63.96
2022-08-22T22:55:24.089Z,63.67
2022-08-22T22:57:59.298Z,63.42
2022-08-22T23:00:30.649Z,63.01
2022-08-22T23:03:00.509Z,62.99
2022-08-22T23:05:28.806Z,62.85
2022-08-22T23:07:56.992Z,62.55
2022-08-22T23:10:25.293Z,63.07
2022-08-22T23:12:55.002Z,62.87
2022-08-22T23:15:22.775Z,62.86
2022-08-22T23:17:50.862Z,62.84
2022-08-22T23:20:18.945Z,62.68
2022-08-22T23:22:47.434Z,62.19
2022-08-22T23:25:16.221Z,62.60
2022-08-22T23:27:44.885Z,62.71
2022-08-22T23:30:21.714Z,62.92
2022-08-22T23:32:49.856Z,62.68
2022-08-22T23:35:18.132Z,62.79
2022-08-22T23:37:46.230Z,62.97
2022-08-22T23:40:14.305Z,62.72
2022-08-22T23:42:42.841Z,62.67
2022-08-22T23:45:11.301Z,62.85
2022-08-22T23:47:40.633Z,62.76
2022-08-22T23:50:09.005Z,62.84
2022-08-22T23:52:37.030Z,63.15
2022-08-22T23:55:05.459Z,63.11
2022-08-22T23:57:33.545Z,63.16
